Map

Track Data

SID SEASON NUMBER BASIN SUBBASIN NAME ISO_TIME NATURE LAT LON WMO_WIND WMO_PRES WMO_AGENCY TRACK_TYPE DIST2LAND LANDFALL IFLAG USA_AGENCY USA_ATCF_ID USA_LAT USA_LON USA_RECORD USA_STATUS USA_WIND USA_PRES USA_SSHS USA_R34_NE USA_R34_SE USA_R34_SW USA_R34_NW USA_R50_NE USA_R50_SE USA_R50_SW USA_R50_NW USA_R64_NE USA_R64_SE USA_R64_SW USA_R64_NW USA_POCI USA_ROCI USA_RMW USA_EYE TOKYO_LAT TOKYO_LON TOKYO_GRADE TOKYO_WIND TOKYO_PRES TOKYO_R50_DIR TOKYO_R50_LONG TOKYO_R50_SHORT TOKYO_R30_DIR TOKYO_R30_LONG TOKYO_R30_SHORT TOKYO_LAND CMA_LAT CMA_LON CMA_CAT CMA_WIND CMA_PRES HKO_LAT HKO_LON HKO_CAT HKO_WIND HKO_PRES NEWDELHI_LAT NEWDELHI_LON NEWDELHI_GRADE NEWDELHI_WIND NEWDELHI_PRES NEWDELHI_CI NEWDELHI_DP NEWDELHI_POCI REUNION_LAT REUNION_LON REUNION_TYPE REUNION_WIND REUNION_PRES REUNION_TNUM REUNION_CI REUNION_RMW REUNION_R34_NE REUNION_R34_SE REUNION_R34_SW REUNION_R34_NW REUNION_R50_NE REUNION_R50_SE REUNION_R50_SW REUNION_R50_NW REUNION_R64_NE REUNION_R64_SE REUNION_R64_SW REUNION_R64_NW BOM_LAT BOM_LON BOM_TYPE BOM_WIND BOM_PRES BOM_TNUM BOM_CI BOM_RMW BOM_R34_NE BOM_R34_SE BOM_R34_SW BOM_R34_NW BOM_R50_NE BOM_R50_SE BOM_R50_SW BOM_R50_NW BOM_R64_NE BOM_R64_SE BOM_R64_SW BOM_R64_NW BOM_ROCI BOM_POCI BOM_EYE BOM_POS_METHOD BOM_PRES_METHOD NADI_LAT NADI_LON NADI_CAT NADI_WIND NADI_PRES WELLINGTON_LAT WELLINGTON_LON WELLINGTON_WIND WELLINGTON_PRES DS824_LAT DS824_LON DS824_STAGE DS824_WIND DS824_PRES TD9636_LAT TD9636_LON TD9636_STAGE TD9636_WIND TD9636_PRES TD9635_LAT TD9635_LON TD9635_WIND TD9635_PRES TD9635_ROCI NEUMANN_LAT NEUMANN_LON NEUMANN_CLASS NEUMANN_WIND NEUMANN_PRES MLC_LAT MLC_LON MLC_CLASS MLC_WIND MLC_PRES USA_GUST BOM_GUST BOM_GUST_PER REUNION_GUST REUNION_GUST_PER USA_SEAHGT USA_SEARAD_NE USA_SEARAD_SE USA_SEARAD_SW USA_SEARAD_NW STORM_SPEED STORM_DIR
2021095S10123 2021 16 SI WA SEROJA 2021-04-04 12:00:00 TS -10.4000 123.200 PROVISIONAL 32 32 O_____________ tcgp SH262021 -10.4000 123.200 TS 35 999 0 30 35 35 30 1004 205 30 3 257
2021095S10123 2021 16 SI WA SEROJA 2021-04-04 15:00:00 TS -10.4275 123.070 PROVISIONAL 43 43 P_____________ SH262021 -10.4275 123.070 TS 40 996 0 55 57 62 57 1004 207 27 3 251
2021095S10123 2021 16 SI WA SEROJA 2021-04-04 18:00:00 TS -10.5000 122.900 PROVISIONAL 66 66 O_____________ tcgp SH262021 -10.5000 122.900 TS 45 993 0 80 80 90 85 1004 210 25 55 5 242
2021095S10123 2021 16 SI WA SEROJA 2021-04-04 21:00:00 TS -10.6425 122.665 PROVISIONAL 90 90 P_____________ SH262021 -10.6425 122.665 TS 45 992 0 75 82 85 87 1004 215 25 6 239
2021095S10123 2021 16 SI WA SEROJA 2021-04-05 00:00:00 TS -10.8000 122.400 PROVISIONAL 128 128 O_____________ tcgp SH262021 -10.8000 122.400 TS 45 992 0 70 85 80 90 1004 220 25 6 242
2021095S10123 2021 16 SI WA SEROJA 2021-04-05 03:00:00 TS -10.9150 122.150 PROVISIONAL 152 158 P_____________ SH262021 -10.9150 122.150 TS 47 991 0 72 92 90 92 1004 215 25 5 248
2021095S10123 2021 16 SI WA SEROJA 2021-04-05 06:00:00 TS -11.0000 121.900 PROVISIONAL 158 141 O_____________ tcgp SH262021 -11.0000 121.900 TS 50 990 0 75 100 100 95 10 30 30 1004 210 25 5 254
2021095S10123 2021 16 SI WA SEROJA 2021-04-05 09:00:00 TS -11.0499 121.672 PROVISIONAL 141 126 P_____________ SH262021 -11.0499 121.672 TS 50 992 0 75 97 97 90 15 32 30 1005 207 25 5 258
2021095S10123 2021 16 SI WA SEROJA 2021-04-05 12:00:00 TS -11.1000 121.400 PROVISIONAL 126 114 O_____________ tcgp SH262021 -11.1000 121.400 TS 50 994 0 75 95 95 85 20 35 30 35 1007 205 25 7 257
2021095S10123 2021 16 SI WA SEROJA 2021-04-05 15:00:00 TS -11.2001 121.008 PROVISIONAL 114 106 P_____________ SH262021 -11.2001 121.008 TS 50 994 0 80 92 92 85 30 37 35 37 1007 212 25 8 256
2021095S10123 2021 16 SI WA SEROJA 2021-04-05 18:00:00 TS -11.3000 120.600 PROVISIONAL 112 112 O_____________ tcgp SH262021 -11.3000 120.600 TS 50 994 0 85 90 90 85 40 40 40 40 1007 220 25 7 258
2021095S10123 2021 16 SI WA SEROJA 2021-04-05 21:00:00 TS -11.3500 120.262 PROVISIONAL 114 114 P_____________ SH262021 -11.3500 120.262 TS 52 992 0 85 90 90 85 40 40 40 40 1007 222 25 6 260
2021095S10123 2021 16 SI WA SEROJA 2021-04-06 00:00:00 TS -11.4000 120.000 PROVISIONAL 134 134 O_____________ tcgp SH262021 -11.4000 120.000 TS 55 991 0 85 90 90 85 40 40 40 40 1007 225 25 4 252
2021095S10123 2021 16 SI WA SEROJA 2021-04-06 03:00:00 TS -11.4849 119.835 PROVISIONAL 152 152 P_____________ SH262021 -11.4849 119.835 TS 52 992 0 82 77 87 87 45 37 42 50 1006 217 25 4 236
2021095S10123 2021 16 SI WA SEROJA 2021-04-06 06:00:00 TS -11.6000 119.700 PROVISIONAL 166 166 O_____________ tcgp SH262021 -11.6000 119.700 TS 50 994 0 80 65 85 90 50 35 45 60 1006 210 25 4 234
2021095S10123 2021 16 SI WA SEROJA 2021-04-06 09:00:00 TS -11.7200 119.507 PROVISIONAL 184 184 P_____________ SH262021 -11.7200 119.507 TS 50 989 0 85 67 82 90 45 32 40 50 1006 210 25 5 232
2021095S10123 2021 16 SI WA SEROJA 2021-04-06 12:00:00 TS -11.9000 119.300 PROVISIONAL 214 214 O_____________ tcgp SH262021 -11.9000 119.300 TS 50 985 0 90 70 80 90 40 30 35 40 1006 210 25 6 219
2021095S10123 2021 16 SI WA SEROJA 2021-04-06 15:00:00 TS -12.1624 119.137 PROVISIONAL 254 254 P_____________ SH262021 -12.1624 119.137 TS 47 990 0 90 70 80 90 1006 210 25 7 213
2021095S10123 2021 16 SI WA SEROJA 2021-04-06 18:00:00 TS -12.5000 118.900 PROVISIONAL 294 294 O_____________ tcgp SH262021 -12.5000 118.900 TS 45 995 0 90 70 80 90 1006 210 25 9 221
2021095S10123 2021 16 SI WA SEROJA 2021-04-06 21:00:00 TS -12.8775 118.510 PROVISIONAL 354 354 P_____________ SH262021 -12.8775 118.510 TS 45 996 0 77 60 82 85 1006 165 25 12 228
2021095S10123 2021 16 SI WA SEROJA 2021-04-07 00:00:00 TS -13.3000 118.000 PROVISIONAL 420 420 O_____________ tcgp SH262021 -13.3000 118.000 TS 45 997 0 65 50 85 80 1006 120 25 14 231
2021095S10123 2021 16 SI WA SEROJA 2021-04-07 03:00:00 TS -13.7425 117.422 PROVISIONAL 484 484 P_____________ SH262021 -13.7425 117.422 TS 45 996 0 62 55 80 75 1005 147 25 15 232
2021095S10123 2021 16 SI WA SEROJA 2021-04-07 06:00:00 TS -14.2000 116.800 PROVISIONAL 562 562 O_____________ tcgp SH262021 -14.2000 116.800 TS 45 996 0 60 60 75 70 1005 175 25 15 231
2021095S10123 2021 16 SI WA SEROJA 2021-04-07 09:00:00 TS -14.6646 116.230 PROVISIONAL 633 624 P_____________ SH262021 -14.6646 116.230 TS 45 996 0 57 70 75 75 1005 177 25 15 232
2021095S10123 2021 16 SI WA SEROJA 2021-04-07 12:00:00 TS -15.1000 115.600 PROVISIONAL 626 601 O_____________ tcgp SH262021 -15.1000 115.600 TS 45 997 0 55 80 75 80 1006 180 25 16 239
2021095S10123 2021 16 SI WA SEROJA 2021-04-07 15:00:00 TS -15.4801 114.822 PROVISIONAL 604 599 P_____________ SH262021 -15.4801 114.822 TS 45 996 0 55 77 70 70 1006 182 25 17 246
2021095S10123 2021 16 SI WA SEROJA 2021-04-07 18:00:00 TS -15.8000 114.000 PROVISIONAL 608 608 O_____________ tcgp SH262021 -15.8000 114.000 TS 45 996 0 55 75 65 60 1006 185 25 17 250
2021095S10123 2021 16 SI WA SEROJA 2021-04-07 21:00:00 TS -16.0427 113.175 PROVISIONAL 632 628 P_____________ SH262021 -16.0427 113.175 TS 50 994 0 57 70 80 57 12 12 7 7 1005 195 20 15 251
2021095S10123 2021 16 SI WA SEROJA 2021-04-08 00:00:00 TS -16.3000 112.500 PROVISIONAL 645 614 O_____________ tcgp SH262021 -16.3000 112.500 TS 55 992 0 60 65 95 55 25 25 15 15 1004 205 15 70 12 237
2021095S10123 2021 16 SI WA SEROJA 2021-04-08 03:00:00 TS -16.7071 112.117 PROVISIONAL 614 580 P_____________ SH262021 -16.7071 112.117 TS 55 989 0 67 87 102 52 25 40 32 17 1002 200 25 10 216
2021095S10123 2021 16 SI WA SEROJA 2021-04-08 06:00:00 TS -17.1000 111.900 PROVISIONAL 580 568 O_____________ tcgp SH262021 -17.1000 111.900 TS 55 987 0 75 110 110 50 25 55 50 20 1001 195 35 7 215
2021095S10123 2021 16 SI WA SEROJA 2021-04-08 09:00:00 TS -17.2924 111.692 PROVISIONAL 568 557 P_____________ SH262021 -17.2924 111.692 TS 52 989 0 75 92 50 1002 195 35 6 224
2021095S10123 2021 16 SI WA SEROJA 2021-04-08 12:00:00 TS -17.5000 111.500 PROVISIONAL 557 528 O_____________ tcgp SH262021 -17.5000 111.500 TS 50 991 0 75 75 45 1003 195 35 8 211
2021095S10123 2021 16 SI WA SEROJA 2021-04-08 15:00:00 TS -17.9349 111.287 PROVISIONAL 528 501 P_____________ SH262021 -17.9349 111.287 TS 47 991 0 75 75 1002 177 40 10 208
2021095S10123 2021 16 SI WA SEROJA 2021-04-08 18:00:00 TS -18.4000 111.000 PROVISIONAL 501 496 O_____________ tcgp SH262021 -18.4000 111.000 TS 45 991 0 75 75 1001 160 45 11 221
2021095S10123 2021 16 SI WA SEROJA 2021-04-08 21:00:00 TS -18.7227 110.558 PROVISIONAL 503 503 P_____________ SH262021 -18.7227 110.558 TS 45 991 0 77 87 1001 160 45 10 235
2021095S10123 2021 16 SI WA SEROJA 2021-04-09 00:00:00 TS -19.0000 110.100 PROVISIONAL 519 519 O_____________ tcgp SH262021 -19.0000 110.100 TS 45 991 0 80 100 100 50 1001 160 45 9 231
2021095S10123 2021 16 SI WA SEROJA 2021-04-09 03:00:00 TS -19.3148 109.777 PROVISIONAL 524 524 P_____________ SH262021 -19.3148 109.777 TS 50 987 0 82 95 97 97 1000 160 45 8 223
2021095S10123 2021 16 SI WA SEROJA 2021-04-09 06:00:00 TS -19.6000 109.500 PROVISIONAL 533 533 O_____________ tcgp SH262021 -19.6000 109.500 TS 55 984 0 85 90 95 145 1000 160 45 8 228
2021095S10123 2021 16 SI WA SEROJA 2021-04-09 09:00:00 TS -19.8225 109.185 PROVISIONAL 551 551 P_____________ SH262021 -19.8225 109.185 TS 57 982 0 142 87 92 162 1000 157 35 7 235
2021095S10123 2021 16 SI WA SEROJA 2021-04-09 12:00:00 TS -20.0000 108.900 PROVISIONAL 566 566 O_____________ tcgp SH262021 -20.0000 108.900 TS 60 980 0 200 85 90 180 30 25 1001 155 25 6 235
2021095S10123 2021 16 SI WA SEROJA 2021-04-09 15:00:00 TS -20.1574 108.677 PROVISIONAL 573 573 P_____________ SH262021 -20.1574 108.677 TS 60 981 0 157 105 97 140 47 37 1001 150 22 5 231
2021095S10123 2021 16 SI WA SEROJA 2021-04-09 18:00:00 TS -20.3000 108.500 PROVISIONAL 586 586 O_____________ tcgp SH262021 -20.3000 108.500 TS 60 982 0 115 125 105 100 60 65 50 50 1002 145 20 4 229
2021095S10123 2021 16 SI WA SEROJA 2021-04-09 21:00:00 TS -20.4500 108.320 PROVISIONAL 596 596 P_____________ SH262021 -20.4500 108.320 TS 57 984 0 100 97 85 82 47 47 42 40 1002 140 20 4 223
2021095S10123 2021 16 SI WA SEROJA 2021-04-10 00:00:00 TS -20.6000 108.200 PROVISIONAL 601 596 O_____________ tcgp SH262021 -20.6000 108.200 TS 55 986 0 85 70 65 65 35 30 35 30 1002 135 20 3 214
2021095S10123 2021 16 SI WA SEROJA 2021-04-10 03:00:00 TS -20.7199 108.133 PROVISIONAL 606 589 P_____________ SH262021 -20.7199 108.133 TS 57 983 0 85 70 67 65 35 30 35 30 1001 130 20 3 0
2021095S10123 2021 16 SI WA SEROJA 2021-04-10 06:00:00 TS -20.9000 108.200 PROVISIONAL 589 558 O_____________ tcgp SH262021 -20.9000 108.200 TS 60 981 0 85 70 70 65 35 30 35 30 1001 125 20 6 149
2021095S10123 2021 16 SI WA SEROJA 2021-04-10 09:00:00 TS -21.1900 108.440 PROVISIONAL 558 506 P_____________ SH262021 -21.1900 108.440 TS 62 979 0 95 77 77 72 35 30 35 32 1001 125 20 9 141
2021095S10123 2021 16 SI WA SEROJA 2021-04-10 12:00:00 TS -21.6000 108.800 PROVISIONAL 506 455 O_____________ tcgp SH262021 -21.6000 108.800 TY 65 978 1 105 85 85 80 35 30 35 35 1002 125 20 11 143
2021095S10123 2021 16 SI WA SEROJA 2021-04-10 15:00:00 TS -22.0900 109.178 PROVISIONAL 455 410 P_____________ SH262021 -22.0900 109.178 TY 65 978 1 107 90 80 90 45 37 35 42 1002 125 20 13 146
2021095S10123 2021 16 SI WA SEROJA 2021-04-10 18:00:00 TS -22.7000 109.600 PROVISIONAL 410 362 O_____________ tcgp SH262021 -22.7000 109.600 TY 65 978 1 110 95 75 100 55 45 35 50 25 25 25 25 1002 125 20 15 150
2021095S10123 2021 16 SI WA SEROJA 2021-04-10 21:00:00 TS -23.3895 109.999 PROVISIONAL 360 294 P_____________ SH262021 -23.3895 109.999 TY 65 978 1 110 95 67 95 55 50 30 45 30 30 1002 125 22 17 151
2021095S10123 2021 16 SI WA SEROJA 2021-04-11 00:00:00 TS -24.2000 110.500 PROVISIONAL 294 241 O_____________ tcgp SH262021 -24.2000 110.500 TY 65 979 1 110 95 60 90 55 55 25 40 35 35 1002 125 25 20 149
2021095S10123 2021 16 SI WA SEROJA 2021-04-11 03:00:00 TS -25.0966 111.140 PROVISIONAL 240 140 P_____________ SH262021 -25.0966 111.140 TY 67 975 1 117 102 57 90 52 50 27 40 32 32 1000 125 16 23 144
2021095S10123 2021 16 SI WA SEROJA 2021-04-11 06:00:00 TS -26.1000 112.000 PROVISIONAL 129 68 O_____________ tcgp SH262021 -26.1000 112.000 TY 70 972 1 125 110 55 90 50 45 30 40 30 30 20 20 999 125 7 10 27 140
2021095S10123 2021 16 SI WA SEROJA 2021-04-11 09:00:00 TS -27.1696 113.097 PROVISIONAL 72 0 P_____________ SH262021 -27.1696 113.097 TY 70 972 1 120 105 55 90 57 52 30 40 30 27 20 20 999 122 6 31 136
2021095S10123 2021 16 SI WA SEROJA 2021-04-11 12:00:00 TS -28.3000 114.400 PROVISIONAL 0 0 O_____________ tcgp SH262021 -28.3000 114.400 TY 70 972 1 115 100 55 90 65 60 30 40 30 25 20 20 999 120 5 10 32 133
2021095S10123 2021 16 SI WA SEROJA 2021-04-11 15:00:00 TS -29.3874 115.753 PROVISIONAL 0 0 P_____________ SH262021 -29.3874 115.753 TY 65 975 1 110 85 55 102 57 45 25 50 15 12 10 10 999 120 10 34 132
2021095S10123 2021 16 SI WA SEROJA 2021-04-11 18:00:00 TS -30.6000 117.300 PROVISIONAL 0 0 O_____________ tcgp SH262021 -30.6000 117.300 TS 60 978 0 105 70 55 115 50 30 20 60 999 120 15 40 132
2021095S10123 2021 16 SI WA SEROJA 2021-04-11 21:00:00 TS -32.0499 119.183 PROVISIONAL 0 0 P_____________ SH262021 -32.0499 119.183 TS 55 981 0 105 70 55 115 50 30 20 60 999 120 15 44 133
2021095S10123 2021 16 SI WA SEROJA 2021-04-12 00:00:00 ET -33.6000 121.100 PROVISIONAL 0 0 O_____________ tcgp SH262021 -33.6000 121.100 EX 50 985 -4 105 70 55 115 50 30 20 60 999 120 15 43 136
2021095S10123 2021 16 SI WA SEROJA 2021-04-12 03:00:00 ET -35.1174 122.736 PROVISIONAL 122 122 P_____________ SH262021 -35.1174 122.736 EX 47 987 -4 105 70 55 115 997 110 15 39 140
2021095S10123 2021 16 SI WA SEROJA 2021-04-12 06:00:00 ET -36.6000 124.200 PROVISIONAL 303 O_____________ tcgp SH262021 -36.6000 124.200 EX 45 989 -4 105 70 55 115 995 100 15 38 142

About IBTrACS Database

This database is a web-friendly format of International Best Track Archive for Climate Stewardship (IBTrACS), a global best track data archive curated by NOAA dating back to 1842.

Updated: 2021-11-26